FIN19 EFHK-KDFW
Flight info
| Callsign | FIN19 |
|---|---|
| Flight time | N/A |
| Altitude | 36000 |
| Route | DCT NEPEK Y357 EVLIT DCT IRGAL DCT NEBUR DCT OGPAR DCT 70N000E/M085F360 74N020W/M085F380 74N040W 72N060W DCT NADMA/N0491F380 DCT 70N070W 66N080W/N0495F400 61N090W DCT YGX DCT OTLUR DCT KP06C DCT ONL/N0488F410 DCT OBH DCT KIRKE/N0487F400 DCT HOFFF VKTRY2 |
| Aircraft | A359/H-SDE2E3GHIJ3J4J5LM1ORWXY/LB1D1 |
Departure
| Time | N/A |
|---|---|
| Airport | Helsinki Vantaa Airport (EFHK) |
Arrival
| Time | 2026-05-05 21:14 |
|---|---|
| Airport | Dallas Fort Worth International Airport (KDFW) |
| Time | Latitude | Longitude | Altitude | Speed | Heading |
|---|---|---|---|---|---|
| 2026-05-05 18:03 | 54.48716 | -95.51944 | 42961 ft | 516 kts | 193° |
| 2026-05-05 18:04 | 54.45233 | -95.53400 | 42960 ft | 516 kts | 193° |
| 2026-05-05 18:04 | 54.38257 | -95.56308 | 42964 ft | 516 kts | 193° |
| 2026-05-05 18:05 | 54.31329 | -95.59186 | 42958 ft | 516 kts | 193° |
| 2026-05-05 18:05 | 54.24348 | -95.62074 | 42961 ft | 516 kts | 193° |
| 2026-05-05 18:06 | 54.17374 | -95.64952 | 42965 ft | 516 kts | 193° |
| 2026-05-05 18:06 | 54.10402 | -95.67817 | 42962 ft | 515 kts | 193° |
| 2026-05-05 18:07 | 54.03424 | -95.70677 | 42965 ft | 516 kts | 193° |
| 2026-05-05 18:07 | 53.96446 | -95.73527 | 42965 ft | 516 kts | 193° |
| 2026-05-05 18:08 | 53.89463 | -95.76370 | 42958 ft | 516 kts | 193° |
| 2026-05-05 18:08 | 53.82480 | -95.79199 | 42961 ft | 516 kts | 193° |
| 2026-05-05 18:09 | 53.75501 | -95.82019 | 42960 ft | 516 kts | 193° |
| 2026-05-05 18:09 | 53.68521 | -95.84830 | 42965 ft | 516 kts | 193° |
| 2026-05-05 18:10 | 53.61543 | -95.87631 | 42963 ft | 516 kts | 193° |
| 2026-05-05 18:10 | 53.54563 | -95.90422 | 42959 ft | 516 kts | 193° |
| 2026-05-05 18:11 | 53.47571 | -95.93209 | 42962 ft | 516 kts | 193° |
| 2026-05-05 18:11 | 53.40579 | -95.95988 | 42963 ft | 516 kts | 193° |
| 2026-05-05 18:12 | 53.33588 | -95.98755 | 42963 ft | 516 kts | 193° |
| 2026-05-05 18:12 | 53.26598 | -96.01512 | 42957 ft | 516 kts | 193° |
| 2026-05-05 18:13 | 53.19609 | -96.04261 | 42957 ft | 516 kts | 193° |
| 2026-05-05 18:13 | 53.12618 | -96.07001 | 42956 ft | 516 kts | 193° |
| 2026-05-05 18:14 | 53.05624 | -96.09732 | 42952 ft | 516 kts | 193° |
| 2026-05-05 18:14 | 52.98628 | -96.12456 | 42953 ft | 516 kts | 193° |
| 2026-05-05 18:15 | 52.91627 | -96.15173 | 42954 ft | 517 kts | 193° |
| 2026-05-05 18:15 | 52.84678 | -96.17862 | 42959 ft | 516 kts | 193° |
| 2026-05-05 18:16 | 52.77684 | -96.20558 | 42963 ft | 516 kts | 193° |
| 2026-05-05 18:16 | 52.70685 | -96.23247 | 42958 ft | 516 kts | 193° |
| 2026-05-05 18:17 | 52.63693 | -96.25924 | 42960 ft | 516 kts | 193° |
| 2026-05-05 18:17 | 52.56697 | -96.28594 | 42973 ft | 516 kts | 193° |
| 2026-05-05 18:18 | 52.49708 | -96.31253 | 42969 ft | 516 kts | 193° |
| 2026-05-05 18:18 | 52.42717 | -96.33905 | 42966 ft | 516 kts | 193° |
| 2026-05-05 18:19 | 52.35727 | -96.36546 | 42979 ft | 516 kts | 193° |
| 2026-05-05 18:19 | 52.28734 | -96.39181 | 42977 ft | 516 kts | 193° |
| 2026-05-05 18:20 | 52.21742 | -96.41807 | 42976 ft | 516 kts | 193° |
| 2026-05-05 18:20 | 52.14740 | -96.44428 | 42978 ft | 517 kts | 193° |
| 2026-05-05 18:21 | 52.07734 | -96.47042 | 42980 ft | 517 kts | 193° |
| 2026-05-05 18:21 | 52.00724 | -96.49649 | 42988 ft | 517 kts | 193° |
| 2026-05-05 18:22 | 51.93709 | -96.52251 | 42987 ft | 517 kts | 193° |
| 2026-05-05 18:22 | 51.86699 | -96.54841 | 42990 ft | 517 kts | 193° |
| 2026-05-05 18:23 | 51.79685 | -96.57422 | 42993 ft | 517 kts | 193° |
| 2026-05-05 18:23 | 51.72661 | -96.60001 | 43005 ft | 518 kts | 193° |
| 2026-05-05 18:24 | 51.65687 | -96.62554 | 43002 ft | 517 kts | 193° |
| 2026-05-05 18:24 | 51.58623 | -96.65132 | 43006 ft | 517 kts | 193° |
| 2026-05-05 18:25 | 51.51655 | -96.67669 | 42997 ft | 517 kts | 193° |
| 2026-05-05 18:25 | 51.44639 | -96.70213 | 42998 ft | 517 kts | 193° |
| 2026-05-05 18:26 | 51.37617 | -96.72749 | 43011 ft | 517 kts | 193° |
| 2026-05-05 18:26 | 51.30596 | -96.75277 | 43006 ft | 517 kts | 193° |
| 2026-05-05 18:27 | 51.23581 | -96.77796 | 43007 ft | 517 kts | 193° |
| 2026-05-05 18:27 | 51.16568 | -96.80309 | 43008 ft | 516 kts | 193° |
| 2026-05-05 18:28 | 51.06061 | -96.84057 | 43006 ft | 515 kts | 193° |
| 2026-05-05 18:28 | 50.99073 | -96.86539 | 43008 ft | 514 kts | 193° |
| 2026-05-05 18:29 | 50.92083 | -96.89014 | 43001 ft | 514 kts | 193° |
| 2026-05-05 18:29 | 50.85100 | -96.91479 | 43001 ft | 514 kts | 193° |
| 2026-05-05 18:30 | 50.79293 | -96.93524 | 43004 ft | 514 kts | 193° |
| 2026-05-05 18:30 | 50.72304 | -96.95978 | 43001 ft | 514 kts | 193° |
| 2026-05-05 18:31 | 50.65314 | -96.98424 | 42997 ft | 514 kts | 193° |
| 2026-05-05 18:31 | 50.58332 | -97.00859 | 42996 ft | 514 kts | 193° |
| 2026-05-05 18:32 | 50.51340 | -97.03293 | 42998 ft | 515 kts | 193° |
| 2026-05-05 18:32 | 50.44349 | -97.05719 | 43004 ft | 515 kts | 193° |
| 2026-05-05 18:33 | 50.37363 | -97.08134 | 43004 ft | 513 kts | 193° |
| 2026-05-05 18:33 | 50.30389 | -97.10537 | 43006 ft | 513 kts | 193° |
| 2026-05-05 18:34 | 50.23419 | -97.12934 | 43004 ft | 513 kts | 193° |
| 2026-05-05 18:34 | 50.16447 | -97.15323 | 43002 ft | 513 kts | 193° |
| 2026-05-05 18:35 | 50.09487 | -97.17702 | 43020 ft | 512 kts | 193° |
| 2026-05-05 18:35 | 50.02529 | -97.20071 | 43009 ft | 512 kts | 194° |
| 2026-05-05 18:36 | 49.95571 | -97.22434 | 43017 ft | 512 kts | 194° |
| 2026-05-05 18:36 | 49.88661 | -97.24730 | 42989 ft | 511 kts | 191° |
| 2026-05-05 18:37 | 49.81614 | -97.26279 | 42977 ft | 512 kts | 188° |
| 2026-05-05 18:37 | 49.74525 | -97.27552 | 42994 ft | 514 kts | 188° |
| 2026-05-05 18:38 | 49.67439 | -97.28916 | 42996 ft | 512 kts | 189° |
| 2026-05-05 18:38 | 49.60373 | -97.30362 | 43016 ft | 512 kts | 189° |
| 2026-05-05 18:39 | 49.53311 | -97.31831 | 43016 ft | 512 kts | 189° |
| 2026-05-05 18:39 | 49.46252 | -97.33294 | 43012 ft | 511 kts | 189° |
| 2026-05-05 18:40 | 49.39204 | -97.34747 | 43014 ft | 510 kts | 189° |
| 2026-05-05 18:40 | 49.32168 | -97.36192 | 43019 ft | 510 kts | 189° |
| 2026-05-05 18:41 | 49.25127 | -97.37632 | 43012 ft | 510 kts | 189° |
| 2026-05-05 18:41 | 49.18108 | -97.39063 | 43016 ft | 509 kts | 189° |
| 2026-05-05 18:42 | 49.11092 | -97.40491 | 43014 ft | 509 kts | 189° |
| 2026-05-05 18:42 | 49.04077 | -97.41915 | 43017 ft | 508 kts | 189° |
| 2026-05-05 18:43 | 48.97074 | -97.43332 | 43013 ft | 507 kts | 189° |
| 2026-05-05 18:43 | 48.90076 | -97.44744 | 43009 ft | 507 kts | 189° |
| 2026-05-05 18:44 | 48.83078 | -97.46152 | 43002 ft | 507 kts | 189° |
| 2026-05-05 18:44 | 48.76089 | -97.47553 | 43011 ft | 506 kts | 189° |
| 2026-05-05 18:45 | 48.69105 | -97.48951 | 43011 ft | 506 kts | 189° |
| 2026-05-05 18:45 | 48.62122 | -97.50344 | 43016 ft | 506 kts | 189° |
| 2026-05-05 18:46 | 48.55138 | -97.51734 | 43017 ft | 506 kts | 189° |
| 2026-05-05 18:46 | 48.48203 | -97.53110 | 43015 ft | 506 kts | 189° |
| 2026-05-05 18:47 | 48.41175 | -97.54500 | 43015 ft | 506 kts | 189° |
| 2026-05-05 18:47 | 48.34244 | -97.55866 | 43012 ft | 505 kts | 189° |
| 2026-05-05 18:48 | 48.27233 | -97.57246 | 43007 ft | 505 kts | 189° |
| 2026-05-05 18:48 | 48.20269 | -97.58613 | 43007 ft | 505 kts | 189° |
| 2026-05-05 18:49 | 48.13309 | -97.59974 | 43003 ft | 504 kts | 190° |
| 2026-05-05 18:49 | 48.06409 | -97.61320 | 43003 ft | 504 kts | 190° |
| 2026-05-05 18:50 | 47.99455 | -97.62674 | 43003 ft | 503 kts | 190° |
| 2026-05-05 18:50 | 47.92510 | -97.64022 | 42988 ft | 503 kts | 190° |
| 2026-05-05 18:51 | 47.85571 | -97.65365 | 42993 ft | 503 kts | 190° |
| 2026-05-05 18:51 | 47.78638 | -97.66704 | 42997 ft | 503 kts | 190° |
| 2026-05-05 18:52 | 47.71703 | -97.68038 | 43000 ft | 502 kts | 190° |
| 2026-05-05 18:52 | 47.64782 | -97.69367 | 42998 ft | 501 kts | 190° |
| 2026-05-05 18:53 | 47.57866 | -97.70692 | 42999 ft | 501 kts | 190° |
| 2026-05-05 18:53 | 47.50951 | -97.72012 | 42996 ft | 501 kts | 191° |
| 2026-05-05 18:54 | 47.44052 | -97.73326 | 43001 ft | 499 kts | 191° |
| 2026-05-05 18:54 | 47.37157 | -97.74636 | 43001 ft | 499 kts | 191° |
| 2026-05-05 18:55 | 47.30268 | -97.75941 | 42997 ft | 499 kts | 191° |
| 2026-05-05 18:55 | 47.23393 | -97.77240 | 43004 ft | 498 kts | 191° |
| 2026-05-05 18:56 | 47.16523 | -97.78535 | 43007 ft | 497 kts | 191° |
| 2026-05-05 18:56 | 47.09662 | -97.79825 | 43005 ft | 497 kts | 191° |
| 2026-05-05 18:57 | 47.02811 | -97.81109 | 43008 ft | 496 kts | 191° |
| 2026-05-05 18:57 | 46.95965 | -97.82390 | 43008 ft | 496 kts | 191° |
| 2026-05-05 18:58 | 46.89115 | -97.83668 | 43000 ft | 496 kts | 191° |
| 2026-05-05 18:58 | 46.82281 | -97.84939 | 43008 ft | 495 kts | 191° |
| 2026-05-05 18:59 | 46.75447 | -97.86208 | 43007 ft | 495 kts | 191° |
| 2026-05-05 18:59 | 46.68618 | -97.87472 | 42990 ft | 494 kts | 192° |
| 2026-05-05 19:00 | 46.61802 | -97.88730 | 43007 ft | 493 kts | 192° |
| 2026-05-05 19:00 | 46.54989 | -97.89985 | 43005 ft | 493 kts | 192° |
| 2026-05-05 19:01 | 46.48230 | -97.91227 | 43005 ft | 493 kts | 192° |
| 2026-05-05 19:01 | 46.41422 | -97.92475 | 43004 ft | 493 kts | 192° |
| 2026-05-05 19:02 | 46.34615 | -97.93719 | 43000 ft | 493 kts | 192° |
| 2026-05-05 19:02 | 46.27807 | -97.94960 | 42991 ft | 493 kts | 192° |
| 2026-05-05 19:03 | 46.21010 | -97.96196 | 42997 ft | 492 kts | 192° |
| 2026-05-05 19:03 | 46.14220 | -97.97428 | 42992 ft | 492 kts | 192° |
| 2026-05-05 19:04 | 46.07434 | -97.98656 | 42993 ft | 491 kts | 192° |
| 2026-05-05 19:04 | 46.00657 | -97.99880 | 43000 ft | 490 kts | 192° |
| 2026-05-05 19:05 | 45.93903 | -98.01184 | 42989 ft | 489 kts | 193° |
| 2026-05-05 19:05 | 45.87165 | -98.02607 | 42991 ft | 489 kts | 194° |
| 2026-05-05 19:06 | 45.80432 | -98.04024 | 42992 ft | 489 kts | 193° |
| 2026-05-05 19:06 | 45.73696 | -98.05417 | 42994 ft | 489 kts | 193° |
| 2026-05-05 19:07 | 45.66962 | -98.06795 | 42994 ft | 489 kts | 194° |
| 2026-05-05 19:07 | 45.60225 | -98.08169 | 43008 ft | 489 kts | 194° |
| 2026-05-05 19:08 | 45.53491 | -98.09540 | 43009 ft | 489 kts | 194° |
| 2026-05-05 19:08 | 45.46759 | -98.10908 | 43004 ft | 488 kts | 194° |
| 2026-05-05 19:09 | 45.40039 | -98.12270 | 43015 ft | 487 kts | 194° |
| 2026-05-05 19:09 | 45.33327 | -98.13627 | 43014 ft | 487 kts | 194° |
| 2026-05-05 19:10 | 45.26615 | -98.14982 | 43008 ft | 487 kts | 194° |
| 2026-05-05 19:10 | 45.19915 | -98.16330 | 43013 ft | 486 kts | 194° |
| 2026-05-05 19:11 | 45.13219 | -98.17675 | 43012 ft | 486 kts | 194° |
| 2026-05-05 19:11 | 45.06574 | -98.19006 | 43005 ft | 486 kts | 194° |
| 2026-05-05 19:12 | 44.99879 | -98.20344 | 43017 ft | 485 kts | 194° |
| 2026-05-05 19:12 | 44.93191 | -98.21677 | 43006 ft | 485 kts | 194° |
| 2026-05-05 19:13 | 44.86506 | -98.23007 | 43004 ft | 485 kts | 194° |
| 2026-05-05 19:13 | 44.79821 | -98.24333 | 43020 ft | 485 kts | 194° |
| 2026-05-05 19:14 | 44.73148 | -98.25655 | 43018 ft | 485 kts | 194° |
| 2026-05-05 19:14 | 44.66470 | -98.26974 | 43018 ft | 484 kts | 194° |
| 2026-05-05 19:15 | 44.59803 | -98.28287 | 43024 ft | 484 kts | 194° |
| 2026-05-05 19:15 | 44.53137 | -98.29598 | 43026 ft | 483 kts | 194° |
| 2026-05-05 19:16 | 44.47600 | -98.30685 | 43026 ft | 483 kts | 194° |
| 2026-05-05 19:16 | 44.40939 | -98.31989 | 43026 ft | 483 kts | 194° |
| 2026-05-05 19:17 | 44.34279 | -98.33290 | 43027 ft | 483 kts | 194° |
| 2026-05-05 19:17 | 44.27621 | -98.34586 | 43019 ft | 483 kts | 194° |
| 2026-05-05 19:18 | 44.20972 | -98.35879 | 43037 ft | 482 kts | 194° |
| 2026-05-05 19:18 | 44.14330 | -98.37168 | 43037 ft | 482 kts | 194° |
| 2026-05-05 19:19 | 44.07686 | -98.38454 | 43034 ft | 482 kts | 194° |
| 2026-05-05 19:19 | 44.01051 | -98.39735 | 43042 ft | 481 kts | 194° |
| 2026-05-05 19:20 | 43.94418 | -98.41013 | 43044 ft | 481 kts | 194° |
| 2026-05-05 19:20 | 43.87785 | -98.42288 | 43039 ft | 480 kts | 194° |
| 2026-05-05 19:21 | 43.81176 | -98.43555 | 43058 ft | 479 kts | 194° |
| 2026-05-05 19:21 | 43.74573 | -98.44819 | 43058 ft | 479 kts | 194° |
| 2026-05-05 19:22 | 43.67968 | -98.46081 | 43045 ft | 479 kts | 194° |
| 2026-05-05 19:22 | 43.61379 | -98.47336 | 43053 ft | 478 kts | 194° |
| 2026-05-05 19:23 | 43.54791 | -98.48589 | 43051 ft | 478 kts | 194° |
| 2026-05-05 19:23 | 43.48250 | -98.49829 | 43050 ft | 477 kts | 195° |
| 2026-05-05 19:24 | 43.41639 | -98.51080 | 43057 ft | 476 kts | 195° |
| 2026-05-05 19:24 | 43.35118 | -98.52312 | 43055 ft | 476 kts | 195° |
| 2026-05-05 19:25 | 43.28554 | -98.53549 | 43040 ft | 476 kts | 195° |
| 2026-05-05 19:25 | 43.22005 | -98.54780 | 43054 ft | 475 kts | 195° |
| 2026-05-05 19:26 | 43.15460 | -98.56009 | 43055 ft | 474 kts | 195° |
| 2026-05-05 19:26 | 43.08922 | -98.57233 | 43051 ft | 474 kts | 195° |
| 2026-05-05 19:27 | 43.02394 | -98.58452 | 43056 ft | 473 kts | 195° |
| 2026-05-05 19:27 | 42.95880 | -98.59667 | 43056 ft | 472 kts | 195° |
| 2026-05-05 19:28 | 42.89369 | -98.60879 | 43036 ft | 472 kts | 196° |
| 2026-05-05 19:28 | 42.82872 | -98.62084 | 43056 ft | 471 kts | 196° |
| 2026-05-05 19:29 | 42.76387 | -98.63285 | 43051 ft | 470 kts | 196° |
| 2026-05-05 19:29 | 42.69906 | -98.64484 | 43049 ft | 470 kts | 196° |
| 2026-05-05 19:30 | 42.63435 | -98.65676 | 43046 ft | 468 kts | 196° |
| 2026-05-05 19:30 | 42.56988 | -98.66862 | 43045 ft | 467 kts | 196° |
| 2026-05-05 19:31 | 42.50534 | -98.68013 | 43042 ft | 470 kts | 194° |
| 2026-05-05 19:31 | 42.43883 | -98.67656 | 43049 ft | 489 kts | 178° |
| 2026-05-05 19:32 | 42.37179 | -98.65789 | 43045 ft | 494 kts | 175° |
| 2026-05-05 19:32 | 42.30485 | -98.63655 | 43044 ft | 495 kts | 175° |
| 2026-05-05 19:33 | 42.23789 | -98.61527 | 43045 ft | 494 kts | 176° |
| 2026-05-05 19:33 | 42.17098 | -98.59450 | 43043 ft | 493 kts | 176° |
| 2026-05-05 19:34 | 42.10414 | -98.57401 | 43044 ft | 493 kts | 176° |
| 2026-05-05 19:35 | 42.00389 | -98.54340 | 43042 ft | 492 kts | 176° |
| 2026-05-05 19:35 | 41.93720 | -98.52307 | 43042 ft | 491 kts | 176° |
| 2026-05-05 19:36 | 41.87054 | -98.50279 | 43010 ft | 491 kts | 176° |
| 2026-05-05 19:36 | 41.80401 | -98.48257 | 43038 ft | 489 kts | 176° |
| 2026-05-05 19:37 | 41.73821 | -98.46264 | 43033 ft | 488 kts | 176° |
| 2026-05-05 19:37 | 41.67192 | -98.44262 | 43000 ft | 488 kts | 177° |
| 2026-05-05 19:38 | 41.60575 | -98.42265 | 43037 ft | 487 kts | 177° |
| 2026-05-05 19:38 | 41.53970 | -98.40276 | 43035 ft | 487 kts | 177° |
| 2026-05-05 19:39 | 41.47358 | -98.38291 | 43042 ft | 487 kts | 177° |
| 2026-05-05 19:39 | 41.40755 | -98.36315 | 43040 ft | 486 kts | 177° |
| 2026-05-05 19:40 | 41.34170 | -98.35433 | 43041 ft | 470 kts | 188° |
| 2026-05-05 19:40 | 41.27655 | -98.35427 | 43047 ft | 467 kts | 190° |
| 2026-05-05 19:41 | 41.21156 | -98.35565 | 43046 ft | 467 kts | 191° |
| 2026-05-05 19:41 | 41.14658 | -98.35699 | 43041 ft | 467 kts | 190° |
| 2026-05-05 19:42 | 41.08153 | -98.35808 | 43037 ft | 468 kts | 190° |
| 2026-05-05 19:42 | 41.01646 | -98.35906 | 43028 ft | 468 kts | 191° |
| 2026-05-05 19:43 | 40.95143 | -98.36002 | 43037 ft | 467 kts | 191° |
| 2026-05-05 19:43 | 40.88640 | -98.36100 | 43036 ft | 467 kts | 191° |
| 2026-05-05 19:44 | 40.82185 | -98.36197 | 42999 ft | 467 kts | 191° |
| 2026-05-05 19:44 | 40.75695 | -98.36293 | 43050 ft | 465 kts | 191° |
| 2026-05-05 19:45 | 40.69227 | -98.36391 | 43054 ft | 465 kts | 191° |
| 2026-05-05 19:45 | 40.62765 | -98.36489 | 43055 ft | 465 kts | 191° |
| 2026-05-05 19:46 | 40.57701 | -98.36565 | 43048 ft | 464 kts | 191° |
| 2026-05-05 19:46 | 40.51377 | -98.36656 | 43053 ft | 462 kts | 191° |
| 2026-05-05 19:47 | 40.44951 | -98.36751 | 43049 ft | 462 kts | 191° |
| 2026-05-05 19:47 | 40.38533 | -98.36848 | 43047 ft | 462 kts | 191° |
| 2026-05-05 19:48 | 40.32103 | -98.36944 | 43047 ft | 462 kts | 191° |
| 2026-05-05 19:48 | 40.25678 | -98.37039 | 43053 ft | 462 kts | 191° |
| 2026-05-05 19:49 | 40.19256 | -98.37135 | 43041 ft | 462 kts | 191° |
| 2026-05-05 19:49 | 40.12831 | -98.37229 | 43040 ft | 462 kts | 191° |
| 2026-05-05 19:50 | 40.06412 | -98.37324 | 43041 ft | 462 kts | 191° |
| 2026-05-05 19:50 | 39.99981 | -98.37419 | 43035 ft | 462 kts | 191° |
| 2026-05-05 19:51 | 39.93566 | -98.37513 | 43016 ft | 461 kts | 192° |
| 2026-05-05 19:51 | 39.87148 | -98.37605 | 43037 ft | 460 kts | 192° |
| 2026-05-05 19:52 | 39.80788 | -98.37698 | 43035 ft | 460 kts | 192° |
| 2026-05-05 19:52 | 39.74385 | -98.37793 | 43037 ft | 460 kts | 192° |
| 2026-05-05 19:53 | 39.67989 | -98.37884 | 43035 ft | 458 kts | 192° |
| 2026-05-05 19:53 | 39.61641 | -98.37972 | 43031 ft | 456 kts | 192° |
| 2026-05-05 19:54 | 39.55306 | -98.38067 | 43032 ft | 455 kts | 192° |
| 2026-05-05 19:54 | 39.48970 | -98.38161 | 43016 ft | 455 kts | 192° |
| 2026-05-05 19:55 | 39.42658 | -98.38250 | 43024 ft | 453 kts | 192° |
| 2026-05-05 19:55 | 39.36364 | -98.38341 | 43024 ft | 452 kts | 192° |
| 2026-05-05 19:56 | 39.30074 | -98.38433 | 43023 ft | 452 kts | 192° |
| 2026-05-05 19:56 | 39.23786 | -98.38524 | 43022 ft | 451 kts | 192° |
| 2026-05-05 19:57 | 39.17534 | -98.38611 | 43022 ft | 449 kts | 192° |
| 2026-05-05 19:57 | 39.11288 | -98.38701 | 43023 ft | 449 kts | 192° |
| 2026-05-05 19:58 | 39.05086 | -98.38792 | 43020 ft | 449 kts | 192° |
| 2026-05-05 19:58 | 38.98849 | -98.38881 | 43020 ft | 448 kts | 192° |
| 2026-05-05 19:59 | 38.92621 | -98.38969 | 43020 ft | 447 kts | 192° |
| 2026-05-05 19:59 | 38.86393 | -98.39058 | 43015 ft | 448 kts | 192° |
| 2026-05-05 20:00 | 38.80167 | -98.39147 | 42989 ft | 447 kts | 192° |
| 2026-05-05 20:00 | 38.73962 | -98.39232 | 43007 ft | 445 kts | 192° |
| 2026-05-05 20:01 | 38.67770 | -98.39320 | 42998 ft | 445 kts | 192° |
| 2026-05-05 20:01 | 38.61582 | -98.39409 | 42987 ft | 445 kts | 192° |
| 2026-05-05 20:02 | 38.55393 | -98.39497 | 42986 ft | 444 kts | 192° |
| 2026-05-05 20:02 | 38.49229 | -98.39581 | 42989 ft | 442 kts | 192° |
| 2026-05-05 20:03 | 38.43071 | -98.39668 | 42992 ft | 442 kts | 192° |
| 2026-05-05 20:03 | 38.36919 | -98.39756 | 42994 ft | 442 kts | 192° |
| 2026-05-05 20:04 | 38.30771 | -98.39841 | 42993 ft | 441 kts | 192° |
| 2026-05-05 20:04 | 38.24647 | -98.39926 | 42991 ft | 440 kts | 192° |
| 2026-05-05 20:05 | 38.18525 | -98.40013 | 42986 ft | 440 kts | 192° |
| 2026-05-05 20:05 | 38.13445 | -98.40085 | 42977 ft | 440 kts | 192° |
| 2026-05-05 20:06 | 38.07382 | -98.40478 | 42970 ft | 430 kts | 198° |
| 2026-05-05 20:06 | 38.01456 | -98.41439 | 42961 ft | 429 kts | 199° |
| 2026-05-05 20:07 | 37.95538 | -98.42437 | 42952 ft | 429 kts | 199° |
| 2026-05-05 20:07 | 37.89617 | -98.43440 | 42952 ft | 429 kts | 199° |
| 2026-05-05 20:08 | 37.83704 | -98.44441 | 42963 ft | 428 kts | 199° |
| 2026-05-05 20:08 | 37.77810 | -98.45438 | 42968 ft | 427 kts | 199° |
| 2026-05-05 20:09 | 37.71912 | -98.46435 | 42971 ft | 427 kts | 199° |
| 2026-05-05 20:09 | 37.66017 | -98.47430 | 42970 ft | 428 kts | 199° |
| 2026-05-05 20:10 | 37.60160 | -98.48416 | 42963 ft | 427 kts | 199° |
| 2026-05-05 20:10 | 37.54266 | -98.49408 | 42961 ft | 428 kts | 199° |
| 2026-05-05 20:11 | 37.48370 | -98.50398 | 42946 ft | 427 kts | 199° |
| 2026-05-05 20:11 | 37.42471 | -98.51387 | 42934 ft | 427 kts | 199° |
| 2026-05-05 20:12 | 37.36575 | -98.52375 | 42927 ft | 428 kts | 199° |
| 2026-05-05 20:12 | 37.30671 | -98.53362 | 42922 ft | 428 kts | 199° |
| 2026-05-05 20:13 | 37.24763 | -98.54347 | 42922 ft | 428 kts | 199° |
| 2026-05-05 20:13 | 37.18858 | -98.55331 | 42919 ft | 428 kts | 199° |
| 2026-05-05 20:14 | 37.12948 | -98.56314 | 42920 ft | 429 kts | 199° |
| 2026-05-05 20:14 | 37.07032 | -98.57297 | 42924 ft | 429 kts | 199° |
| 2026-05-05 20:15 | 37.01109 | -98.58279 | 42925 ft | 429 kts | 199° |
| 2026-05-05 20:15 | 36.95190 | -98.59258 | 42928 ft | 429 kts | 199° |
| 2026-05-05 20:16 | 36.89270 | -98.60237 | 42925 ft | 430 kts | 200° |
| 2026-05-05 20:16 | 36.83340 | -98.61216 | 42929 ft | 430 kts | 200° |
| 2026-05-05 20:17 | 36.77411 | -98.62193 | 42929 ft | 430 kts | 200° |
| 2026-05-05 20:17 | 36.71482 | -98.63168 | 42943 ft | 430 kts | 200° |
| 2026-05-05 20:18 | 36.65590 | -98.64135 | 42917 ft | 430 kts | 200° |
| 2026-05-05 20:18 | 36.59665 | -98.65107 | 42924 ft | 429 kts | 200° |
| 2026-05-05 20:19 | 36.53742 | -98.66077 | 42905 ft | 429 kts | 200° |
| 2026-05-05 20:19 | 36.47817 | -98.67046 | 42899 ft | 429 kts | 200° |
| 2026-05-05 20:20 | 36.41899 | -98.68012 | 42872 ft | 429 kts | 200° |
| 2026-05-05 20:20 | 36.35978 | -98.68977 | 42892 ft | 429 kts | 200° |
| 2026-05-05 20:21 | 36.30058 | -98.69941 | 42887 ft | 429 kts | 200° |
| 2026-05-05 20:21 | 36.24146 | -98.70901 | 42884 ft | 429 kts | 200° |
| 2026-05-05 20:22 | 36.18227 | -98.71862 | 42836 ft | 429 kts | 200° |
| 2026-05-05 20:22 | 36.12323 | -98.72817 | 42884 ft | 427 kts | 200° |
| 2026-05-05 20:23 | 36.06430 | -98.73771 | 42886 ft | 427 kts | 200° |
| 2026-05-05 20:23 | 36.00541 | -98.74722 | 42879 ft | 427 kts | 200° |
| 2026-05-05 20:24 | 35.94651 | -98.75673 | 42881 ft | 427 kts | 200° |
| 2026-05-05 20:24 | 35.88757 | -98.76622 | 42873 ft | 427 kts | 200° |
| 2026-05-05 20:25 | 35.82872 | -98.77568 | 42885 ft | 427 kts | 200° |
| 2026-05-05 20:25 | 35.76985 | -98.78513 | 42893 ft | 427 kts | 200° |
| 2026-05-05 20:26 | 35.71092 | -98.79458 | 42900 ft | 427 kts | 200° |
| 2026-05-05 20:26 | 35.65206 | -98.80400 | 42905 ft | 427 kts | 200° |
| 2026-05-05 20:27 | 35.59319 | -98.81341 | 42870 ft | 427 kts | 200° |
| 2026-05-05 20:27 | 35.53435 | -98.82280 | 42870 ft | 426 kts | 200° |
| 2026-05-05 20:28 | 35.47549 | -98.83218 | 42867 ft | 426 kts | 200° |
| 2026-05-05 20:28 | 35.41702 | -98.84149 | 42838 ft | 426 kts | 201° |
| 2026-05-05 20:29 | 35.35805 | -98.85087 | 42866 ft | 428 kts | 201° |
| 2026-05-05 20:29 | 35.29893 | -98.86025 | 42858 ft | 428 kts | 201° |
| 2026-05-05 20:30 | 35.23983 | -98.86960 | 42751 ft | 428 kts | 201° |
| 2026-05-05 20:30 | 35.21037 | -98.87425 | 42493 ft | 427 kts | 201° |
| 2026-05-05 20:30 | 35.18086 | -98.87893 | 42214 ft | 428 kts | 201° |
| 2026-05-05 20:30 | 35.15125 | -98.88362 | 41925 ft | 430 kts | 201° |
| 2026-05-05 20:31 | 35.12156 | -98.88832 | 41672 ft | 431 kts | 201° |
| 2026-05-05 20:31 | 35.09177 | -98.89302 | 41417 ft | 432 kts | 201° |
| 2026-05-05 20:31 | 35.06197 | -98.89772 | 41165 ft | 432 kts | 201° |
| 2026-05-05 20:31 | 35.03221 | -98.90240 | 40914 ft | 432 kts | 201° |
| 2026-05-05 20:32 | 35.00238 | -98.90709 | 40669 ft | 432 kts | 201° |
| 2026-05-05 20:32 | 34.97257 | -98.91177 | 40415 ft | 432 kts | 201° |
| 2026-05-05 20:32 | 34.94276 | -98.91646 | 40164 ft | 432 kts | 201° |
| 2026-05-05 20:32 | 34.91296 | -98.92114 | 39881 ft | 432 kts | 201° |
| 2026-05-05 20:33 | 34.88306 | -98.92556 | 39641 ft | 437 kts | 199° |
| 2026-05-05 20:33 | 34.85257 | -98.92830 | 39389 ft | 441 kts | 198° |
| 2026-05-05 20:33 | 34.82195 | -98.93064 | 39145 ft | 441 kts | 198° |
| 2026-05-05 20:33 | 34.79138 | -98.93307 | 38900 ft | 440 kts | 198° |
| 2026-05-05 20:34 | 34.76081 | -98.93562 | 38662 ft | 440 kts | 198° |
| 2026-05-05 20:34 | 34.73029 | -98.93824 | 38397 ft | 440 kts | 199° |
| 2026-05-05 20:34 | 34.69972 | -98.94090 | 38104 ft | 440 kts | 199° |
| 2026-05-05 20:34 | 34.66916 | -98.94360 | 37842 ft | 441 kts | 198° |
| 2026-05-05 20:35 | 34.63855 | -98.94630 | 37535 ft | 441 kts | 198° |
| 2026-05-05 20:35 | 34.60795 | -98.94901 | 37263 ft | 441 kts | 198° |
| 2026-05-05 20:35 | 34.57730 | -98.95172 | 37005 ft | 442 kts | 198° |
| 2026-05-05 20:35 | 34.54657 | -98.95444 | 36744 ft | 443 kts | 198° |
| 2026-05-05 20:36 | 34.51619 | -98.95714 | 36496 ft | 444 kts | 198° |
| 2026-05-05 20:36 | 34.48473 | -98.95895 | 36230 ft | 453 kts | 194° |
| 2026-05-05 20:36 | 34.45269 | -98.95602 | 35984 ft | 472 kts | 185° |
| 2026-05-05 20:36 | 34.42050 | -98.94667 | 35784 ft | 493 kts | 175° |
| 2026-05-05 20:37 | 34.38834 | -98.92993 | 35512 ft | 515 kts | 165° |
| 2026-05-05 20:37 | 34.36746 | -98.91429 | 35345 ft | 530 kts | 158° |
| 2026-05-05 20:37 | 34.33044 | -98.87346 | 35027 ft | 560 kts | 141° |
| 2026-05-05 20:37 | 34.30721 | -98.83506 | 34428 ft | 570 kts | 134° |
| 2026-05-05 20:38 | 34.28386 | -98.79661 | 33442 ft | 563 kts | 141° |
| 2026-05-05 20:38 | 34.25811 | -98.76117 | 32382 ft | 560 kts | 143° |
| 2026-05-05 20:38 | 34.23167 | -98.72647 | 31351 ft | 561 kts | 143° |
| 2026-05-05 20:38 | 34.20508 | -98.69196 | 30293 ft | 563 kts | 143° |
| 2026-05-05 20:39 | 34.17834 | -98.65735 | 29505 ft | 559 kts | 143° |
| 2026-05-05 20:39 | 34.15219 | -98.62344 | 29149 ft | 545 kts | 143° |
| 2026-05-05 20:39 | 34.12672 | -98.59044 | 28877 ft | 530 kts | 143° |
| 2026-05-05 20:39 | 34.10187 | -98.55835 | 28582 ft | 517 kts | 143° |
| 2026-05-05 20:40 | 34.07748 | -98.52696 | 28066 ft | 509 kts | 143° |
| 2026-05-05 20:40 | 34.05334 | -98.49599 | 27493 ft | 504 kts | 143° |
| 2026-05-05 20:40 | 34.02954 | -98.46525 | 26937 ft | 499 kts | 143° |
| 2026-05-05 20:40 | 34.00601 | -98.43479 | 26352 ft | 493 kts | 143° |
| 2026-05-05 20:41 | 33.98275 | -98.40472 | 25803 ft | 488 kts | 143° |
| 2026-05-05 20:41 | 33.95966 | -98.37498 | 25265 ft | 483 kts | 143° |
| 2026-05-05 20:41 | 33.93679 | -98.34556 | 24740 ft | 478 kts | 143° |
| 2026-05-05 20:41 | 33.91440 | -98.31679 | 24052 ft | 477 kts | 143° |
| 2026-05-05 20:42 | 33.89176 | -98.28773 | 23475 ft | 474 kts | 142° |
| 2026-05-05 20:42 | 33.86930 | -98.25891 | 22893 ft | 469 kts | 142° |
| 2026-05-05 20:42 | 33.84685 | -98.23008 | 22339 ft | 462 kts | 142° |
| 2026-05-05 20:42 | 33.82533 | -98.20247 | 21802 ft | 456 kts | 142° |
| 2026-05-05 20:43 | 33.80378 | -98.17487 | 21265 ft | 449 kts | 142° |
| 2026-05-05 20:43 | 33.78253 | -98.14769 | 20739 ft | 443 kts | 142° |
| 2026-05-05 20:43 | 33.76157 | -98.12089 | 20193 ft | 437 kts | 142° |
| 2026-05-05 20:43 | 33.74087 | -98.09445 | 19687 ft | 431 kts | 142° |
| 2026-05-05 20:44 | 33.72044 | -98.06839 | 19163 ft | 425 kts | 142° |
| 2026-05-05 20:44 | 33.70029 | -98.04271 | 18671 ft | 419 kts | 142° |
| 2026-05-05 20:44 | 33.68046 | -98.01742 | 18176 ft | 413 kts | 142° |
| 2026-05-05 20:44 | 33.66093 | -97.99251 | 17657 ft | 406 kts | 142° |
| 2026-05-05 20:45 | 33.62249 | -97.94360 | 16318 ft | 401 kts | 142° |
| 2026-05-05 20:45 | 33.60344 | -97.91941 | 15781 ft | 395 kts | 141° |
| 2026-05-05 20:45 | 33.58490 | -97.89576 | 15531 ft | 382 kts | 141° |
| 2026-05-05 20:46 | 33.56698 | -97.87293 | 15219 ft | 371 kts | 142° |
| 2026-05-05 20:46 | 33.54936 | -97.85060 | 14766 ft | 366 kts | 142° |
| 2026-05-05 20:46 | 33.53192 | -97.82859 | 14294 ft | 362 kts | 142° |
| 2026-05-05 20:46 | 33.51469 | -97.80680 | 13815 ft | 358 kts | 142° |
| 2026-05-05 20:47 | 33.49763 | -97.78523 | 13288 ft | 356 kts | 141° |
| 2026-05-05 20:47 | 33.48068 | -97.76383 | 12733 ft | 353 kts | 141° |
| 2026-05-05 20:47 | 33.46383 | -97.74258 | 12211 ft | 350 kts | 141° |
| 2026-05-05 20:47 | 33.44723 | -97.72162 | 11761 ft | 344 kts | 140° |
| 2026-05-05 20:48 | 33.43091 | -97.70101 | 11315 ft | 338 kts | 140° |
| 2026-05-05 20:48 | 33.41489 | -97.68077 | 11071 ft | 328 kts | 140° |
| 2026-05-05 20:48 | 33.39955 | -97.66135 | 10937 ft | 314 kts | 140° |
| 2026-05-05 20:48 | 33.38497 | -97.64242 | 10732 ft | 307 kts | 136° |
| 2026-05-05 20:49 | 33.37193 | -97.62241 | 10503 ft | 303 kts | 133° |
| 2026-05-05 20:49 | 33.35947 | -97.60220 | 10197 ft | 301 kts | 132° |
| 2026-05-05 20:49 | 33.34708 | -97.58201 | 9852 ft | 302 kts | 131° |
| 2026-05-05 20:49 | 33.33442 | -97.56143 | 9511 ft | 310 kts | 131° |
| 2026-05-05 20:50 | 33.32162 | -97.54062 | 9138 ft | 311 kts | 131° |
| 2026-05-05 20:50 | 33.31316 | -97.52684 | 8875 ft | 310 kts | 131° |
| 2026-05-05 20:50 | 33.29617 | -97.49920 | 8340 ft | 307 kts | 131° |
| 2026-05-05 20:50 | 33.28370 | -97.47892 | 7990 ft | 306 kts | 130° |
| 2026-05-05 20:51 | 33.27335 | -97.45661 | 7635 ft | 311 kts | 111° |
| 2026-05-05 20:51 | 33.26981 | -97.43111 | 7252 ft | 312 kts | 96° |
| 2026-05-05 20:51 | 33.26854 | -97.40528 | 6894 ft | 310 kts | 94° |
| 2026-05-05 20:51 | 33.26747 | -97.37965 | 6519 ft | 308 kts | 94° |
| 2026-05-05 20:52 | 33.26550 | -97.35443 | 6259 ft | 304 kts | 103° |
| 2026-05-05 20:52 | 33.25842 | -97.33103 | 6022 ft | 297 kts | 124° |
| 2026-05-05 20:52 | 33.24603 | -97.31155 | 5791 ft | 294 kts | 134° |
| 2026-05-05 20:52 | 33.23231 | -97.29353 | 5543 ft | 293 kts | 136° |
| 2026-05-05 20:53 | 33.21842 | -97.27587 | 5300 ft | 290 kts | 136° |
| 2026-05-05 20:53 | 33.20460 | -97.25844 | 5073 ft | 288 kts | 136° |
| 2026-05-05 20:53 | 33.19081 | -97.24111 | 5000 ft | 288 kts | 136° |
| 2026-05-05 20:53 | 33.17699 | -97.22379 | 4966 ft | 289 kts | 136° |
| 2026-05-05 20:54 | 33.16318 | -97.20651 | 4739 ft | 287 kts | 136° |
| 2026-05-05 20:54 | 33.14944 | -97.18931 | 4499 ft | 286 kts | 136° |
| 2026-05-05 20:54 | 33.13568 | -97.17212 | 4241 ft | 286 kts | 136° |
| 2026-05-05 20:54 | 33.12219 | -97.15523 | 4022 ft | 277 kts | 136° |
| 2026-05-05 20:55 | 33.11331 | -97.14412 | 3849 ft | 271 kts | 136° |
| 2026-05-05 20:55 | 33.10048 | -97.12808 | 3608 ft | 263 kts | 136° |
| 2026-05-05 20:55 | 33.08800 | -97.11251 | 3355 ft | 257 kts | 136° |
| 2026-05-05 20:55 | 33.07580 | -97.09729 | 3111 ft | 251 kts | 136° |
| 2026-05-05 20:56 | 33.06415 | -97.08276 | 2938 ft | 243 kts | 136° |
| 2026-05-05 20:56 | 33.05241 | -97.06813 | 2754 ft | 238 kts | 136° |
| 2026-05-05 20:56 | 33.03983 | -97.05596 | 2589 ft | 236 kts | 159° |
| 2026-05-05 20:56 | 33.02437 | -97.05263 | 2429 ft | 219 kts | 185° |
| 2026-05-05 20:57 | 33.00508 | -97.05311 | 2400 ft | 194 kts | 186° |
| 2026-05-05 20:57 | 32.99651 | -97.05343 | 2368 ft | 178 kts | 188° |
| 2026-05-05 20:57 | 32.98460 | -97.05407 | 2114 ft | 168 kts | 189° |
| 2026-05-05 20:57 | 32.97302 | -97.05413 | 1817 ft | 162 kts | 185° |
| 2026-05-05 20:58 | 32.96208 | -97.05420 | 1573 ft | 157 kts | 186° |
| 2026-05-05 20:58 | 32.95126 | -97.05434 | 1356 ft | 152 kts | 186° |
| 2026-05-05 20:58 | 32.94094 | -97.05448 | 1150 ft | 145 kts | 184° |
| 2026-05-05 20:58 | 32.93122 | -97.05454 | 966 ft | 134 kts | 183° |
| 2026-05-05 20:59 | 32.92210 | -97.05461 | 772 ft | 131 kts | 184° |
| 2026-05-05 20:59 | 32.91286 | -97.05458 | 637 ft | 133 kts | 187° |
| 2026-05-05 20:59 | 32.90418 | -97.05461 | 624 ft | 122 kts | 188° |
| 2026-05-05 20:59 | 32.89400 | -97.05552 | 1201 ft | 165 kts | 196° |
| 2026-05-05 21:00 | 32.88489 | -97.06308 | 1913 ft | 156 kts | 242° |
| 2026-05-05 21:00 | 32.88305 | -97.07502 | 2395 ft | 146 kts | 282° |
| 2026-05-05 21:00 | 32.88929 | -97.08519 | 2568 ft | 173 kts | 324° |
| 2026-05-05 21:00 | 32.90182 | -97.08990 | 2789 ft | 205 kts | 348° |
| 2026-05-05 21:01 | 32.91618 | -97.09309 | 2945 ft | 213 kts | 339° |
| 2026-05-05 21:01 | 32.92994 | -97.09932 | 2963 ft | 211 kts | 333° |
| 2026-05-05 21:01 | 32.94355 | -97.10605 | 2981 ft | 213 kts | 333° |
| 2026-05-05 21:01 | 32.95792 | -97.11056 | 2982 ft | 216 kts | 349° |
| 2026-05-05 21:02 | 32.97327 | -97.11223 | 2969 ft | 224 kts | 352° |
| 2026-05-05 21:02 | 32.98892 | -97.11331 | 2985 ft | 226 kts | 353° |
| 2026-05-05 21:02 | 33.00454 | -97.11451 | 2963 ft | 224 kts | 352° |
| 2026-05-05 21:02 | 33.02024 | -97.11554 | 2969 ft | 225 kts | 352° |
| 2026-05-05 21:03 | 33.03520 | -97.11935 | 2966 ft | 217 kts | 329° |
| 2026-05-05 21:03 | 33.04591 | -97.13117 | 2985 ft | 210 kts | 301° |
| 2026-05-05 21:03 | 33.05279 | -97.14658 | 2986 ft | 211 kts | 294° |
| 2026-05-05 21:03 | 33.05889 | -97.16250 | 2989 ft | 211 kts | 293° |
| 2026-05-05 21:04 | 33.06493 | -97.17842 | 2987 ft | 211 kts | 294° |
| 2026-05-05 21:04 | 33.07439 | -97.19184 | 3010 ft | 216 kts | 323° |
| 2026-05-05 21:04 | 33.08871 | -97.19714 | 2999 ft | 220 kts | 353° |
| 2026-05-05 21:04 | 33.10419 | -97.19616 | 3011 ft | 225 kts | 1° |
| 2026-05-05 21:05 | 33.11953 | -97.19240 | 2998 ft | 228 kts | 15° |
| 2026-05-05 21:05 | 33.13309 | -97.18239 | 3023 ft | 235 kts | 42° |
| 2026-05-05 21:05 | 33.14098 | -97.16565 | 2957 ft | 242 kts | 76° |
| 2026-05-05 21:05 | 33.13947 | -97.14592 | 2779 ft | 242 kts | 115° |
| 2026-05-05 21:06 | 33.12882 | -97.13109 | 2607 ft | 235 kts | 146° |
| 2026-05-05 21:06 | 33.11540 | -97.11994 | 2442 ft | 235 kts | 150° |
| 2026-05-05 21:06 | 33.10175 | -97.10903 | 2420 ft | 236 kts | 152° |
| 2026-05-05 21:06 | 33.08632 | -97.10367 | 2418 ft | 229 kts | 184° |
| 2026-05-05 21:07 | 33.07160 | -97.10852 | 2408 ft | 218 kts | 216° |
| 2026-05-05 21:07 | 33.06195 | -97.12175 | 2417 ft | 211 kts | 249° |
| 2026-05-05 21:07 | 33.06037 | -97.13852 | 2403 ft | 204 kts | 281° |
| 2026-05-05 21:07 | 33.06722 | -97.15308 | 2410 ft | 205 kts | 314° |
| 2026-05-05 21:08 | 33.08029 | -97.16051 | 2416 ft | 218 kts | 347° |
| 2026-05-05 21:08 | 33.09555 | -97.16025 | 2419 ft | 220 kts | 2° |
| 2026-05-05 21:08 | 33.11071 | -97.15706 | 2408 ft | 225 kts | 14° |
| 2026-05-05 21:08 | 33.12377 | -97.14655 | 2420 ft | 231 kts | 46° |
| 2026-05-05 21:09 | 33.13322 | -97.13103 | 2422 ft | 230 kts | 58° |
| 2026-05-05 21:09 | 33.13787 | -97.11304 | 2422 ft | 228 kts | 86° |
| 2026-05-05 21:09 | 33.13424 | -97.09503 | 2417 ft | 226 kts | 124° |
| 2026-05-05 21:09 | 33.12226 | -97.08363 | 2427 ft | 220 kts | 162° |
| 2026-05-05 21:10 | 33.10773 | -97.07821 | 2414 ft | 220 kts | 168° |
| 2026-05-05 21:10 | 33.09295 | -97.07334 | 2408 ft | 220 kts | 169° |
| 2026-05-05 21:10 | 33.07821 | -97.06812 | 2413 ft | 222 kts | 166° |
| 2026-05-05 21:10 | 33.06345 | -97.06256 | 2402 ft | 222 kts | 166° |
| 2026-05-05 21:11 | 33.04871 | -97.05699 | 2409 ft | 221 kts | 167° |
| 2026-05-05 21:11 | 33.03429 | -97.05416 | 2412 ft | 201 kts | 182° |
| 2026-05-05 21:11 | 33.02068 | -97.05413 | 2406 ft | 188 kts | 187° |
| 2026-05-05 21:11 | 33.00773 | -97.05425 | 2357 ft | 185 kts | 184° |
| 2026-05-05 21:12 | 32.99527 | -97.05425 | 2141 ft | 173 kts | 186° |
| 2026-05-05 21:12 | 32.98365 | -97.05429 | 1931 ft | 164 kts | 186° |
| 2026-05-05 21:12 | 32.97242 | -97.05436 | 1691 ft | 157 kts | 185° |
| 2026-05-05 21:12 | 32.96205 | -97.05440 | 1527 ft | 144 kts | 187° |
| 2026-05-05 21:13 | 32.95216 | -97.05442 | 1364 ft | 139 kts | 189° |
| 2026-05-05 21:13 | 32.94274 | -97.05453 | 1137 ft | 135 kts | 184° |
| 2026-05-05 21:13 | 32.93332 | -97.05465 | 1009 ft | 142 kts | 182° |
| 2026-05-05 21:13 | 32.92344 | -97.05462 | 788 ft | 137 kts | 181° |
| 2026-05-05 21:14 | 32.91417 | -97.05461 | 647 ft | 131 kts | 185° |
| 2026-05-05 21:14 | 32.90554 | -97.05466 | 621 ft | 111 kts | 181° |
| 2026-05-05 21:14 | 32.90041 | -97.05474 | 617 ft | 54 kts | 180° |
| 2026-05-05 21:14 | 32.89755 | -97.05472 | 625 ft | 29 kts | 175° |
| 2026-05-05 21:15 | 32.89576 | -97.05396 | 620 ft | 25 kts | 151° |
| 2026-05-05 21:15 | 32.89451 | -97.05315 | 618 ft | 18 kts | 148° |
| 2026-05-05 21:15 | 32.89402 | -97.05202 | 603 ft | 19 kts | 93° |
| 2026-05-05 21:15 | 32.89401 | -97.05051 | 617 ft | 17 kts | 90° |
| 2026-05-05 21:16 | 32.89400 | -97.04890 | 616 ft | 22 kts | 90° |
| 2026-05-05 21:16 | 32.89399 | -97.04737 | 601 ft | 17 kts | 90° |
| 2026-05-05 21:16 | 32.89419 | -97.04619 | 611 ft | 9 kts | 60° |
| 2026-05-05 21:16 | 32.89466 | -97.04565 | 616 ft | 12 kts | 39° |
| 2026-05-05 21:17 | 32.89498 | -97.04535 | 618 ft | 2 kts | 38° |
| 2026-05-05 21:17 | 32.89511 | -97.04522 | 618 ft | 2 kts | 38° |
| 2026-05-05 21:17 | 32.89513 | -97.04521 | 618 ft | 0 kts | 38° |